METAR Data
IDs: Format: Raw Decoded Include TAF

Data at: 2254 UTC 25 Oct 2021

KCRP 252251Z 11011KT 10SM FEW018 FEW032 BKN250 28/24 A2990 RMK AO2 SLP123 T02830244
KCRP 252151Z 09013KT 10SM FEW020 FEW035 BKN250 29/24 A2990 RMK AO2 SLP122 T02940244
KCRP 252051Z 09013KT 10SM FEW026 FEW035 FEW043 BKN250 31/24 A2989 RMK AO2 SLP121 T03110244 56017
KCRP 251951Z 07010KT 10SM FEW027 FEW035 BKN250 31/25 A2990 RMK AO2 SLP123 T03110250
KCRP 251851Z 07008KT 10SM FEW023 SCT029 SCT035 BKN250 31/25 A2992 RMK AO2 SLP130 T03060250
KCRP 251751Z VRB03KT 10SM FEW023 SCT028 BKN250 30/24 A2994 RMK AO2 SLP137 T03000239 10300 20222 58007
KCRP 251651Z 17006KT 10SM FEW022 SCT027 BKN250 29/24 A2996 RMK AO2 SLP143 T02890239
KCRP 251551Z 18007KT 10SM FEW012 SCT017 BKN250 28/24 A2997 RMK AO2 SLP146 T02780244 $
KCRP 251537Z 20007KT 10SM SCT012 BKN018 BKN250 28/24 A2997 RMK AO2 T02780244 $
KCRP 251458Z 20003KT 10SM FEW008 BKN014 BKN020 26/25 A2996 RMK AO2 T02560250 $
KCRP 251451Z 00000KT 10SM SCT014 SCT022 SCT250 25/24 A2996 RMK AO2 SLP145 T02500244 53020
KCRP 251420Z 00000KT 10SM FEW007 SCT014 SCT250 24/24 A2995 RMK AO2 T02440244 $
KCRP 251408Z 00000KT 5SM BR FEW003 BKN014 BKN250 24/24 A2995 RMK AO2 T02440244 $
KCRP 251351Z 00000KT 1 1/2SM R13/1200V2800FT BR FEW000 FEW003 BKN012 BKN250 24/24 A2994 RMK AO2 SLP138 VIS NE-E 5 SW-W 1/2 PRFG FG FEW000 T02390239 $
KCRP 251338Z 00000KT 1 1/4SM R13/1000V1600FT BR FEW000 FEW002 BKN011 BKN250 23/23 A2994 RMK AO2 VIS NE-E 5 SW-W 1/4 PRFG FG FEW000 T02280228
KCRP 251328Z 00000KT 1 1/4SM R13/1200V3500FT BR FEW000 FEW004 BKN013 BKN250 23/23 A2993 RMK AO2 VIS NE-E 5 S-W 1/2 PRFG FG FEW000 T02280228
KCRP 251316Z 00000KT 1/2SM R13/1600V4500FT FG FEW000 FEW004 BKN013 BKN250 23/23 A2993 RMK AO2 VIS NE-E 4 FG FEW000 T02280228 $
KCRP 251251Z 00000KT 1/2SM R13/4000VP6000FT FG FEW000 BKN008 BKN013 BKN250 23/23 A2992 RMK AO2 SLP130 VIS N-E 3 FG FEW000 T02280228
KCRP 251229Z 00000KT 1/2SM R13/2400V5500FT FG SCT000 SCT004 BKN009 BKN250 23/23 A2991 RMK AO2 FG SCT000 T02280228
KCRP 251214Z 03003KT 1/4SM R13/1400VP6000FT FG BKN000 BKN004 BKN009 BKN250 22/22 A2991 RMK AO2 FG BKN000 T02220222
KCRP 251208Z 00000KT 1/2SM R13/2000VP6000FT FG SCT000 SCT004 BKN009 BKN250 22/22 A2991 RMK AO2 VIS N-NE 1/4 FG SCT000 T02220222
KCRP 251151Z 00000KT 1/2SM R13/1600V2400FT FG BKN000 BKN004 BKN012 BKN250 23/23 A2991 RMK AO2 SLP125 VIS E-S 1/4 FG BKN000 T02280228 10244 20222 53004 $
KCRP 251148Z 00000KT 1/2SM R13/1400V2400FT FG BKN000 BKN004 BKN250 23/23 A2990 RMK AO2 VIS E-S 1/4 FG BKN000 $
KCRP 251127Z 00000KT 1/8SM R13/1400V2800FT FG BKN000 BKN004 BKN012 BKN250 23/23 A2990 RMK AO2 FG BKN000 T02280228 $
KCRP 251107Z 00000KT 1/8SM R13/1000V1400FT FG BKN000 BKN004 BKN012 BKN250 23/23 A2989 RMK AO2 FG BKN000 T02330233 $
KCRP 251059Z 20003KT 1/8SM R13/1200V3500FT FG BKN000 BKN004 BKN012 BKN250 23/23 A2989 RMK AO2 VIS NW 1/4 FG BKN000 T02330233 $
KCRP 251051Z 19003KT 1/4SM R13/2400V4000FT FG BKN000 BKN004 BKN012 BKN250 23/23 A2989 RMK AO2 SLP121 VIS N 1/2 FG BKN000 T02330233 $
KCRP 251036Z 18003KT 1/2SM R13/2000V3500FT FG SCT000 SCT004 BKN009 BKN250 23/23 A2989 RMK AO2 FG SCT000 T02330233 $
KCRP 251019Z 00000KT 1/2SM R13/2600V3500FT FG SCT000 BKN004 OVC008 23/23 A2989 RMK AO2 VIS N 3/4 FG SCT000 T02330233 $
KCRP 250951Z 16004KT 3/4SM R13/4000V5000FT BR BCFG FEW001 BKN005 OVC008 23/23 A2989 RMK AO2 SLP121 VIS N 1 1/2 S NW 1 T02330233 $
KCRP 250939Z 16004KT 3/4SM R13/3000V5000FT BR FEW001 BKN005 OVC008 23/23 A2989 RMK AO2 VIS S NW 1 T02280228 $
KCRP 250916Z 15004KT 1/2SM R13/1600V3000FT FG BKN000 OVC005 23/23 A2989 RMK AO2 FG BKN000 T02280228 $
KCRP 250851Z 00000KT 1/4SM R13/1600VP6000FT FG BKN000 BKN250 23/23 A2989 RMK AO2 SLP121 VIS W 1/2 FG BKN000 T02280228 58001 $
KCRP 250821Z 00000KT 1/4SM R13/1800V4000FT FG SCT000 BKN001 BKN250 23/23 A2989 RMK AO2 VIS 1/2 N-NE FG SCT000 T02280228 $
KCRP 250809Z 00000KT 1/2SM R13/1800V3500FT FG FEW001 SCT009 23/23 A2989 RMK AO2 VIS N-NE 3/4 T02330233 $
KCRP 250751Z 17004KT 7SM R13/2000V3000FT FEW001 FEW009 23/23 A2989 RMK AO2 SLP122 VIS SW-NW 3/4 PRFG T02330233 $
KCRP 250727Z 00000KT 8SM R13/2200V4000FT FEW009 FEW250 23/23 A2990 RMK AO2 VIS SW-NW 3/4 PRFG T02330233 $
KCRP 250651Z 16003KT 9SM BCFG FEW012 FEW250 24/24 A2989 RMK AO2 SLP121 T02390239 $
KCRP 250551Z 15003KT 10SM FEW002 FEW013 FEW250 24/24 A2989 RMK AO2 SLP122 FU FEW002 T02390239 10272 20239 403170217 51014 $
KCRP 250451Z 16005KT 10SM FEW003 FEW014 25/24 A2989 RMK AO2 SLP120 FU FEW003 T02500244 $
KCRP 250351Z 15006KT 10SM FEW003 FEW020 FEW250 25/24 A2987 RMK AO2 SLP114 FU FEW003 T02500244 $
KCRP 250251Z 15007KT 10SM FEW250 26/24 A2985 RMK AO2 SLP107 T02560244 53017 $
KCRP 250151Z 15009KT 10SM FEW250 26/24 A2983 RMK AO2 SLP099 T02610244 $
KCRP 250051Z 14008KT 10SM FEW024 FEW250 26/24 A2981 RMK AO2 SLP094 T02610244 $
KCRP 242351Z 13009KT 10SM FEW250 27/24 A2980 RMK AO2 SLP091 T02720239 10317 20272 52002 $
KCRP 242251Z 13012KT 10SM FEW036 FEW250 29/23 A2980 RMK AO2 SLP089 T02890233 $
KCRP 242151Z 12012KT 10SM FEW035 SCT050 SCT250 31/24 A2980 RMK AO2 SLP090 T03060239 $
KCRP 242051Z 18010KT 10SM FEW032 SCT047 SCT250 31/23 A2980 RMK AO2 SLP088 T03110233 55014 $
KCRP 241951Z 16009G15KT 10SM FEW032 SCT039 SCT049 SCT250 31/24 A2979 RMK AO2 SLP085 T03060239 $
KCRP 241851Z 17011KT 10SM SCT035 SCT046 SCT250 31/23 A2981 RMK AO2 SLP094 T03110233 $
KCRP 241751Z 18005KT 10SM FEW029 SCT034 SCT250 30/23 A2984 RMK AO2 SLP102 T03000233 10306 20222 58005 $
KCRP 241651Z 17010KT 10SM FEW023 SCT032 BKN250 29/23 A2985 RMK AO2 SLP108 T02940233 $
KCRP 241623Z 20008KT 10SM FEW022 BKN033 BKN250 28/24 A2986 RMK AO2 T02830239 $
KCRP 241615Z 20008KT 10SM BKN022 BKN035 BKN250 28/24 A2986 RMK AO2 T02830239 $
KCRP 241600Z 20007KT 10SM FEW019 SCT024 BKN034 BKN250 28/24 A2986 RMK AO2 T02780239 $
KCRP 241551Z 17008KT 10SM FEW016 BKN023 BKN034 BKN250 28/24 A2986 RMK AO2 SLP109 T02830244 $
KCRP 241519Z 18010KT 10SM BKN015 BKN021 BKN250 28/24 A2985 RMK AO2 T02780244 $
KCRP 241457Z 17008KT 10SM BKN011 BKN018 BKN250 26/24 A2985 RMK AO2 T02610244 $
KCRP 241451Z 17008KT 10SM SCT011 BKN018 BKN250 26/25 A2985 RMK AO2 SLP107 T02610250 51014 $
KCRP 241448Z 17008KT 040V200 10SM SCT011 BKN018 BKN250 26/25 A2985 RMK AO2 $
KCRP 241351Z 14004KT 6SM BR FEW003 FEW011 SCT024 SCT250 24/24 A2983 RMK AO2 SLP099 VIS SW 2 T02440244 $
KCRP 241251Z 13003KT 5SM R13/2000VP6000FT BR FEW000 FEW013 SCT024 22/22 A2981 RMK AO2 SLP093 VIS S-SW 1/2 W 1 PRFG FG FEW000 T02220222 $
KCRP 241208Z 14004KT 6SM BR FEW008 FEW016 SCT021 22/22 A2980 RMK AO2 VIS S 2 1/2 SW-W 1 1/2 T02220222
KCRP 241151Z 14004KT 6SM BR FEW004 BKN018 22/22 A2980 RMK AO2 SLP090 VIS W 2 T02220222 10244 20217 53001
KCRP 241146Z 13004KT 6SM BR FEW007 BKN017 BKN023 22/22 A2980 RMK AO2 VIS W 1 3/4